createdAt,value
2024-05-09T00:00:41.054Z,12.65
2024-05-09T00:03:10.184Z,13.02
2024-05-09T00:05:42.024Z,14.20
2024-05-09T00:08:10.420Z,14.13
2024-05-09T00:10:39.395Z,14.88
2024-05-09T00:13:08.070Z,11.82
2024-05-09T00:15:36.014Z,12.95
2024-05-09T00:18:04.784Z,13.27
2024-05-09T00:20:38.573Z,16.77
2024-05-09T00:23:12.399Z,12.68
2024-05-09T00:25:42.339Z,13.02
2024-05-09T00:28:09.600Z,15.25
2024-05-09T00:30:37.479Z,15.13
2024-05-09T00:33:06.721Z,16.03
2024-05-09T00:35:35.198Z,14.52
2024-05-09T00:38:02.601Z,16.27
2024-05-09T00:40:40.429Z,12.65
2024-05-09T00:43:13.935Z,15.23
2024-05-09T00:45:41.885Z,14.70
2024-05-09T00:48:13.431Z,16.23
2024-05-09T00:50:44.134Z,13.93
2024-05-09T00:53:12.838Z,13.20
2024-05-09T00:55:40.849Z,13.30
2024-05-09T00:58:10.557Z,14.07
2024-05-09T01:00:40.270Z,14.90
2024-05-09T01:03:13.543Z,14.93
2024-05-09T01:05:42.878Z,13.93
2024-05-09T01:08:11.131Z,13.20
2024-05-09T01:10:38.227Z,11.80
2024-05-09T01:13:06.397Z,12.65
2024-05-09T01:15:34.134Z,12.32
2024-05-09T01:18:13.276Z,13.70
2024-05-09T01:20:43.834Z,14.60
2024-05-09T01:23:14.752Z,12.60
2024-05-09T01:25:43.754Z,13.45
2024-05-09T01:28:10.899Z,13.73
2024-05-09T01:30:38.554Z,14.68
2024-05-09T01:33:08.269Z,16.20
2024-05-09T01:35:37.217Z,13.70
2024-05-09T01:38:04.666Z,14.00
2024-05-09T01:40:37.575Z,14.55
2024-05-09T01:43:11.433Z,12.80
2024-05-09T01:45:39.946Z,15.05
2024-05-09T01:48:08.145Z,13.90
2024-05-09T01:50:39.829Z,15.40
2024-05-09T01:53:10.713Z,15.02
2024-05-09T01:55:37.894Z,16.75
2024-05-09T01:58:05.080Z,14.30
2024-05-09T02:00:38.881Z,16.13
2024-05-09T02:03:11.566Z,14.50
2024-05-09T02:05:41.647Z,13.05
2024-05-09T02:08:17.016Z,14.23
2024-05-09T02:10:44.859Z,16.80
2024-05-09T02:13:12.354Z,16.80
2024-05-09T02:15:39.410Z,18.02
2024-05-09T02:18:07.649Z,17.02
2024-05-09T02:20:36.944Z,14.05
2024-05-09T02:23:06.426Z,16.75
2024-05-09T02:25:34.678Z,16.03
2024-05-09T02:28:02.007Z,15.38
2024-05-09T02:30:38.177Z,15.85
2024-05-09T02:33:09.546Z,16.00
2024-05-09T02:35:37.896Z,17.60
2024-05-09T02:38:05.065Z,16.37
2024-05-09T02:40:37.220Z,20.60
2024-05-09T02:43:08.179Z,19.05
2024-05-09T02:45:35.893Z,15.77
2024-05-09T02:48:03.171Z,18.15
2024-05-09T02:50:37.310Z,20.50
2024-05-09T02:53:07.645Z,18.00
2024-05-09T02:55:34.829Z,16.90
2024-05-09T02:58:01.864Z,15.88
2024-05-09T03:00:36.946Z,16.65
2024-05-09T03:03:08.984Z,16.47
2024-05-09T03:05:37.495Z,17.23
2024-05-09T03:08:05.055Z,18.40
2024-05-09T03:10:36.182Z,18.42
2024-05-09T03:13:09.161Z,18.65
2024-05-09T03:15:36.554Z,15.27
2024-05-09T03:18:04.532Z,16.70
2024-05-09T03:20:34.867Z,17.83
2024-05-09T03:23:04.515Z,17.13
2024-05-09T03:25:31.837Z,17.90
2024-05-09T03:27:59.299Z,18.13
2024-05-09T03:30:38.189Z,15.95
2024-05-09T03:33:17.923Z,18.23
2024-05-09T03:35:47.229Z,17.63
2024-05-09T03:38:14.659Z,16.58
2024-05-09T03:40:46.318Z,18.70
2024-05-09T03:43:13.832Z,20.27
2024-05-09T03:45:40.980Z,16.98
2024-05-09T03:48:08.489Z,17.08
2024-05-09T03:50:36.693Z,16.35
2024-05-09T03:53:04.703Z,18.80
2024-05-09T03:55:32.132Z,17.50
2024-05-09T03:57:59.350Z,19.65
2024-05-09T04:00:34.988Z,18.00
2024-05-09T04:03:08.225Z,17.20
2024-05-09T04:05:40.425Z,18.10
2024-05-09T04:08:08.677Z,20.65
2024-05-09T04:10:35.918Z,18.25
2024-05-09T04:13:04.252Z,22.98
2024-05-09T04:15:32.155Z,18.17
2024-05-09T04:17:59.802Z,18.13
2024-05-09T04:22:56.865Z,19.83
2024-05-09T04:25:23.862Z,20.17
2024-05-09T04:27:55.579Z,20.63
2024-05-09T04:30:34.089Z,20.27
2024-05-09T04:33:06.411Z,20.30
2024-05-09T04:35:34.455Z,19.92
2024-05-09T04:38:01.564Z,20.30
2024-05-09T04:40:33.889Z,19.45
2024-05-09T04:43:04.179Z,18.47
2024-05-09T04:45:31.441Z,17.70
2024-05-09T04:47:58.725Z,18.80
2024-05-09T04:50:35.218Z,18.35
2024-05-09T04:53:06.131Z,18.80
2024-05-09T04:55:36.098Z,19.37
2024-05-09T04:58:03.364Z,20.33
2024-05-09T05:00:36.053Z,18.60
2024-05-09T05:03:13.091Z,19.23
2024-05-09T05:05:44.058Z,18.40
2024-05-09T05:08:13.352Z,17.73
2024-05-09T05:10:41.192Z,19.02
2024-05-09T05:13:20.851Z,18.88
2024-05-09T05:15:51.581Z,18.85
2024-05-09T05:18:19.093Z,20.33
2024-05-09T05:20:46.330Z,18.37
2024-05-09T05:23:15.112Z,20.88
2024-05-09T05:25:42.750Z,20.85
2024-05-09T05:28:10.171Z,19.70
2024-05-09T05:30:38.245Z,20.25
2024-05-09T05:33:06.685Z,24.63
2024-05-09T05:35:34.800Z,22.63
2024-05-09T05:38:02.415Z,22.75
2024-05-09T05:40:36.381Z,20.90
2024-05-09T05:43:09.226Z,22.63
2024-05-09T05:45:36.577Z,19.87
2024-05-09T05:48:05.905Z,20.85
2024-05-09T05:50:36.710Z,20.58
2024-05-09T05:53:10.185Z,23.48
2024-05-09T05:55:39.202Z,22.52
2024-05-09T05:58:10.545Z,23.63
2024-05-09T06:00:39.777Z,24.33
2024-05-09T06:03:09.628Z,26.83
2024-05-09T06:05:40.473Z,23.48
2024-05-09T06:08:08.256Z,21.20
2024-05-09T06:10:39.382Z,23.13
2024-05-09T06:13:12.196Z,21.00
2024-05-09T06:15:40.763Z,24.58
2024-05-09T06:18:09.088Z,24.33
2024-05-09T06:20:38.233Z,21.75
2024-05-09T06:23:09.600Z,25.07
2024-05-09T06:25:37.236Z,23.67
2024-05-09T06:28:04.684Z,23.30
2024-05-09T06:30:38.768Z,22.98
2024-05-09T06:33:10.192Z,24.13
2024-05-09T06:35:38.692Z,22.23
2024-05-09T06:38:08.783Z,23.90
2024-05-09T06:40:38.767Z,24.38
2024-05-09T06:43:18.729Z,22.75
2024-05-09T06:45:48.587Z,21.55
2024-05-09T06:48:18.814Z,23.63
2024-05-09T06:50:46.178Z,24.73
2024-05-09T06:53:17.048Z,21.30
2024-05-09T06:55:44.186Z,22.45
2024-05-09T06:58:11.176Z,21.15
2024-05-09T07:00:40.834Z,21.50
2024-05-09T07:03:15.882Z,21.42
2024-05-09T07:05:45.964Z,21.05
2024-05-09T07:08:13.653Z,19.92
2024-05-09T07:10:40.734Z,21.88
2024-05-09T07:13:11.538Z,20.10
2024-05-09T07:15:39.115Z,21.60
2024-05-09T07:18:17.927Z,20.35
2024-05-09T07:20:47.195Z,19.73
2024-05-09T07:23:14.732Z,19.08
2024-05-09T07:25:42.158Z,22.50
2024-05-09T07:28:16.521Z,16.10
2024-05-09T07:30:43.918Z,16.27
2024-05-09T07:33:17.466Z,20.02
2024-05-09T07:35:44.475Z,18.77
2024-05-09T07:38:11.408Z,18.07
2024-05-09T07:40:39.396Z,17.67
2024-05-09T07:43:08.361Z,17.67
2024-05-09T07:53:36.727Z,17.63
2024-05-09T07:55:56.358Z,18.83
2024-05-09T07:58:27.606Z,20.55
2024-05-09T08:00:55.128Z,19.23
2024-05-09T08:03:23.041Z,17.07
2024-05-09T08:05:51.677Z,18.42
2024-05-09T08:08:18.751Z,17.90
2024-05-09T08:10:46.150Z,16.52
2024-05-09T08:13:13.261Z,17.52
2024-05-09T08:15:40.375Z,17.90
2024-05-09T08:18:12.203Z,17.58
2024-05-09T08:23:07.468Z,20.33
2024-05-09T08:25:34.371Z,19.60
2024-05-09T08:28:01.445Z,19.53
2024-05-09T08:30:33.836Z,18.95
2024-05-09T08:33:05.476Z,19.17
2024-05-09T08:35:33.550Z,16.95
2024-05-09T08:38:05.343Z,18.48
2024-05-09T08:40:35.920Z,20.00
2024-05-09T08:43:09.784Z,16.65
2024-05-09T08:45:42.294Z,18.05
2024-05-09T08:48:12.031Z,17.58
2024-05-09T08:50:41.213Z,15.63
2024-05-09T08:53:09.035Z,16.60
2024-05-09T08:55:40.538Z,16.15
2024-05-09T08:58:15.101Z,15.52
2024-05-09T09:00:43.985Z,15.52
2024-05-09T09:03:16.048Z,15.52
2024-05-09T09:05:56.652Z,16.50
2024-05-09T09:08:24.497Z,15.55
2024-05-09T09:10:54.137Z,16.27
2024-05-09T09:13:21.092Z,14.65
2024-05-09T09:15:49.130Z,17.60
2024-05-09T09:18:17.322Z,13.77
2024-05-09T09:20:44.986Z,13.20
2024-05-09T09:23:11.924Z,14.88
2024-05-09T09:25:42.107Z,15.75
2024-05-09T09:28:09.744Z,15.20
2024-05-09T09:30:40.983Z,13.17
2024-05-09T09:33:12.181Z,17.02
2024-05-09T09:35:40.444Z,14.23
2024-05-09T09:38:08.312Z,12.82
2024-05-09T09:40:40.974Z,13.18
2024-05-09T09:43:21.568Z,14.37
2024-05-09T09:45:51.178Z,14.13
2024-05-09T09:48:20.354Z,13.40
2024-05-09T09:50:48.671Z,14.35
2024-05-09T09:53:16.618Z,14.73
2024-05-09T09:55:44.114Z,13.73
2024-05-09T09:58:14.240Z,14.30
2024-05-09T10:00:42.147Z,16.77
2024-05-09T10:03:09.608Z,14.52
2024-05-09T10:05:37.523Z,11.80
2024-05-09T10:08:07.464Z,13.23
2024-05-09T10:10:36.024Z,13.90
2024-05-09T10:13:04.654Z,12.43
2024-05-09T10:15:45.266Z,13.77
2024-05-09T10:18:12.660Z,14.30
2024-05-09T10:20:43.584Z,13.67
2024-05-09T10:23:27.744Z,13.20
2024-05-09T10:25:59.835Z,14.25
2024-05-09T10:28:31.168Z,60.03
2024-05-09T10:31:13.273Z,24.75
2024-05-09T10:33:46.124Z,13.20
2024-05-09T10:36:14.870Z,16.83
2024-05-09T10:38:43.764Z,14.43
2024-05-09T10:41:11.353Z,14.32
2024-05-09T10:43:41.765Z,15.10
2024-05-09T10:46:09.979Z,15.90
2024-05-09T10:48:38.129Z,16.10
2024-05-09T10:51:05.468Z,14.82
2024-05-09T10:53:32.445Z,15.90
2024-05-09T10:56:00.729Z,16.63
2024-05-09T10:58:28.376Z,16.90
2024-05-09T11:00:55.841Z,16.95
2024-05-09T11:03:26.153Z,15.60
2024-05-09T11:05:53.692Z,17.10
2024-05-09T11:08:24.546Z,15.73
2024-05-09T11:10:54.567Z,15.43
2024-05-09T11:13:32.133Z,16.70
2024-05-09T11:16:00.511Z,15.85
2024-05-09T11:18:31.945Z,16.90
2024-05-09T11:21:02.233Z,15.93
2024-05-09T11:23:32.564Z,14.30
2024-05-09T11:25:59.608Z,15.07
2024-05-09T11:28:28.873Z,15.15
2024-05-09T11:31:08.892Z,15.38
2024-05-09T11:33:38.692Z,15.10
2024-05-09T11:36:06.705Z,17.17
2024-05-09T11:38:33.737Z,15.82
2024-05-09T11:41:01.431Z,16.63
2024-05-09T11:43:28.460Z,16.98
2024-05-09T11:45:57.720Z,17.75
2024-05-09T11:48:25.999Z,16.73
2024-05-09T11:50:54.708Z,16.65
2024-05-09T11:53:21.659Z,15.77
2024-05-09T11:55:48.676Z,18.58
2024-05-09T11:58:18.053Z,17.05
2024-05-09T12:00:46.384Z,16.73
2024-05-09T12:03:13.981Z,15.93
2024-05-09T12:05:41.341Z,17.17
2024-05-09T12:08:08.448Z,17.17
2024-05-09T12:10:36.755Z,15.18
2024-05-09T12:13:06.287Z,17.30
2024-05-09T12:15:37.521Z,16.60
2024-05-09T12:18:06.581Z,16.88
2024-05-09T12:20:37.971Z,16.35
2024-05-09T12:23:09.284Z,15.73
2024-05-09T12:25:38.680Z,16.57
2024-05-09T12:28:06.505Z,18.27
2024-05-09T12:30:38.191Z,14.18
2024-05-09T12:33:12.530Z,15.30
2024-05-09T12:35:40.483Z,15.43
2024-05-09T12:38:07.417Z,14.90
2024-05-09T12:40:37.565Z,17.70
2024-05-09T12:43:10.657Z,15.52
2024-05-09T12:45:38.910Z,17.30
2024-05-09T12:48:10.967Z,18.88
2024-05-09T12:50:41.771Z,17.10
2024-05-09T12:53:09.012Z,20.13
2024-05-09T12:55:44.185Z,17.05
2024-05-09T12:58:21.706Z,18.48
2024-05-09T13:00:48.843Z,17.70
2024-05-09T13:03:15.895Z,17.60
2024-05-09T13:05:45.114Z,17.70
2024-05-09T13:08:12.785Z,18.27
2024-05-09T13:10:39.984Z,19.40
2024-05-09T13:13:09.341Z,22.80
2024-05-09T13:15:39.256Z,19.47
2024-05-09T13:18:07.094Z,22.88
2024-05-09T13:20:36.115Z,19.02
2024-05-09T13:23:05.362Z,18.45
2024-05-09T13:25:34.831Z,20.88
2024-05-09T13:28:02.611Z,19.07
2024-05-09T13:30:38.488Z,19.83
2024-05-09T13:33:09.315Z,19.55
2024-05-09T13:35:36.557Z,19.63
2024-05-09T13:38:04.855Z,20.25
2024-05-09T13:40:34.941Z,19.73
2024-05-09T13:43:04.946Z,19.63
2024-05-09T13:45:32.921Z,22.38
2024-05-09T13:48:00.570Z,22.15
2024-05-09T13:50:34.444Z,21.15
2024-05-09T13:53:06.202Z,22.70
2024-05-09T13:55:35.076Z,23.52
2024-05-09T13:58:02.501Z,20.95
2024-05-09T14:00:41.988Z,22.15
2024-05-09T14:03:14.988Z,19.50
2024-05-09T14:05:43.088Z,21.47
2024-05-09T14:08:10.493Z,22.88
2024-05-09T14:10:43.335Z,24.35
2024-05-09T14:13:10.677Z,23.73
2024-05-09T14:15:37.798Z,22.63
2024-05-09T14:18:05.204Z,24.70
2024-05-09T14:20:32.778Z,23.08
2024-05-09T14:23:01.034Z,21.98
2024-05-09T14:25:29.832Z,22.08
2024-05-09T14:27:59.922Z,24.60
2024-05-09T14:30:34.755Z,25.67
2024-05-09T14:33:06.054Z,24.45
2024-05-09T14:35:34.027Z,25.40
2024-05-09T14:38:01.024Z,22.98
2024-05-09T14:40:38.767Z,23.40
2024-05-09T14:43:14.639Z,23.90
2024-05-09T14:45:43.333Z,23.45
2024-05-09T14:48:11.749Z,24.73
2024-05-09T14:50:40.481Z,24.63
2024-05-09T14:53:11.911Z,25.95
2024-05-09T14:55:40.722Z,24.33
2024-05-09T14:58:10.459Z,25.42
2024-05-09T15:00:42.804Z,25.27
2024-05-09T15:03:13.466Z,29.13
2024-05-09T15:05:40.732Z,27.63
2024-05-09T15:08:08.580Z,27.67
2024-05-09T15:10:36.974Z,27.35
2024-05-09T15:13:07.201Z,28.42
2024-05-09T15:15:35.902Z,27.27
2024-05-09T15:18:04.900Z,28.17
2024-05-09T15:20:35.975Z,26.90
2024-05-09T15:23:06.252Z,30.90
2024-05-09T15:25:34.290Z,28.52
2024-05-09T15:28:01.388Z,28.00
2024-05-09T15:30:32.008Z,27.45
2024-05-09T15:33:03.701Z,25.17
2024-05-09T15:35:31.076Z,27.63
2024-05-09T15:37:58.086Z,27.95
2024-05-09T15:40:35.107Z,27.02
2024-05-09T15:43:07.267Z,28.15
2024-05-09T15:45:35.158Z,25.83
2024-05-09T15:48:02.568Z,26.20
2024-05-09T15:50:37.029Z,28.02
2024-05-09T15:53:08.316Z,26.27
2024-05-09T15:55:36.073Z,26.63
2024-05-09T15:58:04.059Z,26.17
2024-05-09T16:00:37.715Z,25.42
2024-05-09T16:03:09.008Z,26.25
2024-05-09T16:05:36.630Z,27.92
2024-05-09T16:08:04.531Z,27.73
2024-05-09T16:10:33.360Z,28.23
2024-05-09T16:13:02.530Z,32.10
2024-05-09T16:15:30.399Z,31.75
2024-05-09T16:17:57.665Z,28.40
2024-05-09T16:20:34.319Z,28.13
2024-05-09T16:23:07.565Z,28.50
2024-05-09T16:25:34.753Z,28.45
2024-05-09T16:28:03.382Z,28.08
2024-05-09T16:30:35.395Z,26.48
2024-05-09T16:33:04.823Z,25.70
2024-05-09T16:35:32.693Z,28.43
2024-05-09T16:38:02.213Z,28.75
2024-05-09T16:40:36.852Z,30.88
2024-05-09T16:43:07.669Z,31.17
2024-05-09T16:45:35.162Z,30.55
2024-05-09T16:48:02.707Z,28.27
2024-05-09T16:50:33.886Z,29.20
2024-05-09T16:53:03.229Z,29.35
2024-05-09T16:55:30.504Z,28.23
2024-05-09T16:57:58.072Z,28.27
2024-05-09T17:00:35.804Z,28.40
2024-05-09T17:03:10.052Z,30.60
2024-05-09T17:05:38.167Z,28.88
2024-05-09T17:08:05.972Z,28.40
2024-05-09T17:10:34.965Z,28.30
2024-05-09T17:13:04.881Z,28.03
2024-05-09T17:15:33.631Z,27.55
2024-05-09T17:18:01.627Z,29.88
2024-05-09T17:20:33.540Z,29.05
2024-05-09T17:23:03.635Z,26.60
2024-05-09T17:25:30.755Z,27.67
2024-05-09T17:28:05.278Z,27.30
2024-05-09T17:30:36.754Z,31.20
2024-05-09T17:33:07.106Z,28.13
2024-05-09T17:35:35.779Z,35.50
2024-05-09T17:38:02.932Z,30.17
2024-05-09T17:40:34.921Z,30.95
2024-05-09T17:43:05.051Z,28.40
2024-05-09T17:45:32.921Z,28.23
2024-05-09T17:48:00.638Z,28.30
2024-05-09T17:50:34.924Z,28.67
2024-05-09T17:53:07.172Z,29.08
2024-05-09T17:55:35.018Z,28.27
2024-05-09T17:58:02.610Z,30.27
2024-05-09T18:00:37.467Z,27.95
2024-05-09T18:03:10.408Z,29.23
2024-05-09T18:05:38.251Z,27.42
2024-05-09T18:08:06.895Z,31.20
2024-05-09T18:10:37.958Z,30.88
2024-05-09T18:13:10.799Z,27.80
2024-05-09T18:15:38.949Z,28.83
2024-05-09T18:18:06.951Z,29.77
2024-05-09T18:20:41.971Z,27.45
2024-05-09T18:23:13.754Z,26.80
2024-05-09T18:25:41.193Z,25.65
2024-05-09T18:28:08.446Z,26.20
2024-05-09T18:30:37.019Z,27.52
2024-05-09T18:33:06.646Z,27.20
2024-05-09T18:35:35.245Z,27.77
2024-05-09T18:38:05.367Z,27.17
2024-05-09T18:40:36.062Z,27.80
2024-05-09T18:43:07.366Z,26.48
2024-05-09T18:45:37.497Z,28.42
2024-05-09T18:48:06.225Z,25.30
2024-05-09T18:50:37.660Z,27.83
2024-05-09T18:53:07.528Z,25.20
2024-05-09T18:55:34.917Z,24.50
2024-05-09T18:58:02.151Z,26.42
2024-05-09T19:00:35.582Z,26.70
2024-05-09T19:03:09.586Z,28.38
2024-05-09T19:05:39.588Z,30.73
2024-05-09T19:08:07.888Z,27.25
2024-05-09T19:10:37.091Z,29.75
2024-05-09T19:13:08.830Z,26.92
2024-05-09T19:15:39.749Z,28.67
2024-05-09T19:18:07.662Z,29.63
2024-05-09T19:20:36.392Z,25.98
2024-05-09T19:23:05.512Z,28.48
2024-05-09T19:25:33.286Z,26.63
2024-05-09T19:28:01.130Z,25.58
2024-05-09T19:30:36.329Z,23.27
2024-05-09T19:33:07.592Z,24.27
2024-05-09T19:35:34.600Z,24.20
2024-05-09T19:38:01.770Z,24.20
2024-05-09T19:40:32.045Z,27.90
2024-05-09T19:43:05.298Z,26.00
2024-05-09T19:45:34.273Z,25.73
2024-05-09T19:48:02.433Z,21.02
2024-05-09T19:50:37.329Z,22.48
2024-05-09T19:53:10.199Z,23.73
2024-05-09T19:55:37.640Z,21.17
2024-05-09T19:58:07.006Z,22.05
2024-05-09T20:00:37.320Z,21.13
2024-05-09T20:03:06.776Z,21.50
2024-05-09T20:05:34.334Z,22.77
2024-05-09T20:08:01.459Z,21.37
2024-05-09T20:10:32.576Z,21.17
2024-05-09T20:13:02.120Z,19.80
2024-05-09T20:15:29.374Z,21.98
2024-05-09T20:17:56.899Z,26.67
2024-05-09T20:20:32.974Z,23.47
2024-05-09T20:23:05.966Z,23.58
2024-05-09T20:25:33.002Z,23.75
2024-05-09T20:28:00.314Z,23.70
2024-05-09T20:30:32.148Z,25.77
2024-05-09T20:33:03.237Z,25.27
2024-05-09T20:35:33.932Z,23.80
2024-05-09T20:38:02.340Z,24.55
2024-05-09T20:40:34.217Z,26.52
2024-05-09T20:43:05.122Z,26.40
2024-05-09T20:45:32.385Z,30.57
2024-05-09T20:47:59.569Z,26.73
2024-05-09T20:50:35.975Z,27.25
2024-05-09T20:53:09.028Z,26.45
2024-05-09T20:55:36.049Z,25.40
2024-05-09T20:58:03.145Z,24.70
2024-05-09T21:00:38.753Z,25.20
2024-05-09T21:03:09.718Z,26.73
2024-05-09T21:05:36.972Z,26.58
2024-05-09T21:08:04.335Z,27.52
2024-05-09T21:10:33.416Z,27.53
2024-05-09T21:13:03.018Z,29.52
2024-05-09T21:15:30.835Z,29.52
2024-05-09T21:17:58.083Z,28.25
2024-05-09T21:20:30.982Z,29.92
2024-05-09T21:22:59.703Z,29.90
2024-05-09T21:25:26.627Z,34.10
2024-05-09T21:27:53.713Z,32.85
2024-05-09T21:30:31.725Z,29.42
2024-05-09T21:33:08.322Z,31.00
2024-05-09T21:35:35.624Z,29.70
2024-05-09T21:38:02.500Z,32.30
2024-05-09T21:40:34.369Z,34.35
2024-05-09T21:43:04.035Z,30.75
2024-05-09T21:45:31.158Z,34.53
2024-05-09T21:47:58.194Z,31.97
2024-05-09T21:50:32.392Z,34.42
2024-05-09T21:53:06.648Z,33.58
2024-05-09T21:55:34.196Z,35.22
2024-05-09T21:58:01.313Z,36.40
2024-05-09T22:00:35.449Z,35.63
2024-05-09T22:03:06.330Z,38.90
2024-05-09T22:05:33.647Z,39.42
2024-05-09T22:08:00.956Z,36.28
2024-05-09T22:10:33.816Z,38.78
2024-05-09T22:13:04.438Z,37.33
2024-05-09T22:15:37.278Z,38.15
2024-05-09T22:18:06.234Z,34.50
2024-05-09T22:20:37.571Z,35.85
2024-05-09T22:23:06.998Z,36.22
2024-05-09T22:25:34.332Z,37.50
2024-05-09T22:28:02.525Z,35.85
2024-05-09T22:32:59.680Z,37.05
2024-05-09T22:35:26.754Z,36.55
2024-05-09T22:37:53.677Z,37.83
2024-05-09T22:40:28.432Z,40.08
2024-05-09T22:43:04.805Z,35.53
2024-05-09T22:45:31.916Z,37.33
2024-05-09T22:47:59.367Z,37.08
2024-05-09T22:50:30.539Z,38.40
2024-05-09T22:52:59.516Z,37.85
2024-05-09T22:55:26.418Z,36.28
2024-05-09T22:57:53.328Z,35.95
2024-05-09T23:00:29.182Z,36.67
2024-05-09T23:03:02.303Z,34.97
2024-05-09T23:05:30.495Z,37.40
2024-05-09T23:07:57.844Z,36.28
2024-05-09T23:10:31.742Z,38.15
2024-05-09T23:13:03.338Z,39.55
2024-05-09T23:15:30.485Z,37.87
2024-05-09T23:17:58.102Z,38.95
2024-05-09T23:20:35.349Z,36.30
2024-05-09T23:23:10.163Z,36.55
2024-05-09T23:25:38.535Z,39.60
2024-05-09T23:28:05.823Z,39.57
2024-05-09T23:30:37.876Z,37.55
2024-05-09T23:33:08.225Z,41.85
2024-05-09T23:35:35.575Z,40.28
2024-05-09T23:38:02.577Z,39.72
2024-05-09T23:40:38.193Z,37.03
2024-05-09T23:43:08.741Z,37.15
2024-05-09T23:45:36.359Z,38.17
2024-05-09T23:48:03.868Z,37.92
2024-05-09T23:50:35.557Z,39.67
2024-05-09T23:53:05.755Z,41.67
2024-05-09T23:55:33.134Z,41.30
2024-05-09T23:58:00.800Z,38.40
